Capitao Poco, Brazil
Current Conditions -  °F | °C
As of 1:00 PM on Sunday 25 Jan 2015 (Local Time) from SBBE Reporting Station
Rain Showers Rain Showers  
Wind Chill: 86°   Ceiling: 3300
Heat Index: 95°   Visibility: 6mi
Dew Point: 75°   Wind: 7mph
Humidity: 70%   Direction: 20°NNE
Pressure: 29.85"   Gusts: 18mph
Location:  1.75°S, 47.06°W
Report Text: SBBE 251600Z 02006G16KT 9999 VCSH BKN033 FEW035TCU 30/24 Q1011
Loading
Personal Weather Stations






























Interactive Weather Map New forecast layout! Learn more

10-Day Weather Forecast

Advertisements
Track Severe Weather on mobile